San Francisco, CA

12:21 AM PDT on September 18, 2014 (GMT -0700)
San Francisco International | Change Station
CLOSE
Current Station
Airport
Location: San Francisco,
Elevation: 16 ft
Nearby Weather Stations

Elev 16 ft 37.62 °N, 122.37 °W | Updated 25 minutes ago

Overcast
Overcast
72 °F
Feels Like 72 °F
N
7
Wind Variable Wind from SSE

Today
High -- | Low -- °F
--% Chance of Precip.
Yesterday
High -- | Low -- °F
Precip. -- in
6:54 AM 7:12 PM
Waning Crescent, 29% visible
Pressure 29.78 in
Visibility 10.0 miles
Clouds Few 400 ft
Mostly Cloudy 2100 ft
Mostly Cloudy 2500 ft
Dew Point 66 °F
Humidity 81%
Rainfall 0.00 in
Snow Depth Not available.
UV 0 out of 12
Pollen 5.10 out of 12
Ozone Good
PM2.5 Good
Flu Activity Not available.
METAR KSFO 180656Z 16006KT 10SM FEW004 BKN021 BKN025 22/19 A2977 RMK AO2 DZE56 SLP082 P0000 T02220189 $

More Conditions Fewer Conditions

Pressure 29.78 in
Visibility 10.0 miles
Clouds Few 400 ft
Mostly Cloudy 2100 ft
Mostly Cloudy 2500 ft
Dew Point 66 °F
Humidity 81%
Rainfall 0.00 in
Snow Depth Not available.
UV 0 out of 12
Pollen 5.10 out of 12
Ozone Good
PM2.5 Good
Flu Activity Not available.
METAR KSFO 180656Z 16006KT 10SM FEW004 BKN021 BKN025 22/19 A2977 RMK AO2 DZE56 SLP082 P0000 T02220189 $

More Conditions Fewer Conditions

10-Day Weather Forecast

Almanac

Astronomy

Sep. 18, 2014 Rise Set
Actual Time 6:54 AM PDT 7:12 PM PDT
Civil Twilight 6:27 AM PDT 7:38 PM PDT
Nautical Twilight 5:57 AM PDT 8:09 PM PDT
Astronomical Twilight 5:25 AM PDT 8:40 PM PDT
Moon 1:55 AM PDT 4:03 PM PDT
Length of Visible Light 13h 11m
Length of Day
12h 18m
Tomorrow will be 2m 24s shorter.
Waning Crescent, 29% of the Moon is Illuminated
Today
Waning Crescent
Sep 24
New
Oct 1
First Quarter
Oct 8
Full
Oct 15
Last Quarter

Community

WunderPhotos

Upload Photos

1,754,299 photos uploaded!

Nearby

Air Quality

  Air Quality AQ Index Pollutant
Yesterday Good
PM2.5
Current Good
OZONE
Current Good
PM2.5
Wednesday Good
PM2.5
Thursday Good
OZONE
Friday Good
PM2.5
Saturday Moderate
PM2.5
Sunday Moderate
PM2.5
Monday Moderate
PM2.5

Snow Depth

Station Depth Elevation
Blue Lakes 0 in 8000 ft
Tahoe City Cross 0 in 6750 ft
Summit Meadow 0 in 9122 ft
Monitor Pass 1 in 8350 ft
Leavitt Meadows 1 in 7200 ft

Earthquake Activity

City Distance Mag. Time & Date
The Geysers, California 69 miles 2.5 11:29 PM PDT
2014-09-17
Cobb, California 72 miles 2.7 1:23 PM PDT
2014-09-16
Minimum magnitude displayed is 2.5.

Coastal Water Temperatures

Place Temperature
No Stations Reporting

Nearby Weather Stations